sensor_id;sensor_type;location;lat;lon;timestamp;P1;durP1;ratioP1;P2;durP2;ratioP2
70549;SDS011;58101;48.658;2.328;2023-03-24T00:00:59;5.82;;;2.20;;
70549;SDS011;58101;48.658;2.328;2023-03-24T00:03:26;8.80;;;2.22;;
70549;SDS011;58101;48.658;2.328;2023-03-24T00:05:57;6.63;;;2.00;;
70549;SDS011;58101;48.658;2.328;2023-03-24T00:08:27;6.95;;;2.17;;
70549;SDS011;58101;48.658;2.328;2023-03-24T00:11:03;6.25;;;2.03;;
70549;SDS011;58101;48.658;2.328;2023-03-24T00:13:31;5.93;;;1.95;;
70549;SDS011;58101;48.658;2.328;2023-03-24T00:16:11;6.97;;;2.05;;
70549;SDS011;58101;48.658;2.328;2023-03-24T00:18:43;9.88;;;2.25;;
70549;SDS011;58101;48.658;2.328;2023-03-24T00:21:14;8.63;;;2.33;;
70549;SDS011;58101;48.658;2.328;2023-03-24T00:23:40;6.65;;;2.20;;
70549;SDS011;58101;48.658;2.328;2023-03-24T00:26:11;9.77;;;2.60;;
70549;SDS011;58101;48.658;2.328;2023-03-24T00:28:42;6.95;;;2.40;;
70549;SDS011;58101;48.658;2.328;2023-03-24T00:31:09;6.82;;;2.35;;
70549;SDS011;58101;48.658;2.328;2023-03-24T00:33:38;7.13;;;2.53;;
70549;SDS011;58101;48.658;2.328;2023-03-24T00:36:05;7.43;;;2.33;;
70549;SDS011;58101;48.658;2.328;2023-03-24T00:38:36;7.70;;;2.53;;
70549;SDS011;58101;48.658;2.328;2023-03-24T00:41:04;7.35;;;2.50;;
70549;SDS011;58101;48.658;2.328;2023-03-24T00:43:32;7.28;;;2.30;;
70549;SDS011;58101;48.658;2.328;2023-03-24T00:45:59;6.38;;;2.17;;
70549;SDS011;58101;48.658;2.328;2023-03-24T00:48:26;7.00;;;2.60;;
70549;SDS011;58101;48.658;2.328;2023-03-24T00:50:53;7.03;;;2.30;;
70549;SDS011;58101;48.658;2.328;2023-03-24T00:53:19;7.38;;;2.30;;
70549;SDS011;58101;48.658;2.328;2023-03-24T00:55:53;7.70;;;2.10;;
70549;SDS011;58101;48.658;2.328;2023-03-24T00:58:19;6.57;;;2.30;;
70549;SDS011;58101;48.658;2.328;2023-03-24T01:00:46;6.30;;;1.90;;
70549;SDS011;58101;48.658;2.328;2023-03-24T01:03:14;6.07;;;2.10;;
70549;SDS011;58101;48.658;2.328;2023-03-24T01:05:40;6.65;;;2.20;;
70549;SDS011;58101;48.658;2.328;2023-03-24T01:08:12;8.48;;;2.28;;
70549;SDS011;58101;48.658;2.328;2023-03-24T01:10:44;6.18;;;2.10;;
70549;SDS011;58101;48.658;2.328;2023-03-24T01:13:20;8.45;;;1.92;;
70549;SDS011;58101;48.658;2.328;2023-03-24T01:15:48;9.25;;;2.20;;
70549;SDS011;58101;48.658;2.328;2023-03-24T01:18:15;8.02;;;2.03;;
70549;SDS011;58101;48.658;2.328;2023-03-24T01:20:41;6.22;;;2.00;;
70549;SDS011;58101;48.658;2.328;2023-03-24T01:23:13;6.85;;;2.13;;
70549;SDS011;58101;48.658;2.328;2023-03-24T01:25:45;6.28;;;1.83;;
70549;SDS011;58101;48.658;2.328;2023-03-24T01:28:13;6.32;;;1.70;;
70549;SDS011;58101;48.658;2.328;2023-03-24T01:30:40;6.72;;;2.00;;
70549;SDS011;58101;48.658;2.328;2023-03-24T01:33:06;6.57;;;1.90;;
70549;SDS011;58101;48.658;2.328;2023-03-24T01:35:32;6.40;;;1.90;;
70549;SDS011;58101;48.658;2.328;2023-03-24T01:37:58;5.53;;;1.83;;
70549;SDS011;58101;48.658;2.328;2023-03-24T01:40:26;6.82;;;2.00;;
70549;SDS011;58101;48.658;2.328;2023-03-24T01:42:56;7.15;;;2.17;;
70549;SDS011;58101;48.658;2.328;2023-03-24T01:48:04;6.15;;;1.80;;
70549;SDS011;58101;48.658;2.328;2023-03-24T01:50:34;5.85;;;1.70;;
70549;SDS011;58101;48.658;2.328;2023-03-24T01:53:00;6.82;;;1.80;;
70549;SDS011;58101;48.658;2.328;2023-03-24T01:55:26;7.65;;;1.83;;
70549;SDS011;58101;48.658;2.328;2023-03-24T01:57:55;5.97;;;1.80;;
70549;SDS011;58101;48.658;2.328;2023-03-24T02:00:24;5.93;;;1.90;;
70549;SDS011;58101;48.658;2.328;2023-03-24T02:05:19;7.45;;;1.80;;
70549;SDS011;58101;48.658;2.328;2023-03-24T02:07:52;7.45;;;1.85;;
70549;SDS011;58101;48.658;2.328;2023-03-24T02:10:42;7.30;;;1.95;;
70549;SDS011;58101;48.658;2.328;2023-03-24T02:13:08;6.95;;;1.70;;
70549;SDS011;58101;48.658;2.328;2023-03-24T02:34:48;6.03;;;1.80;;
70549;SDS011;58101;48.658;2.328;2023-03-24T02:40:21;6.78;;;1.90;;
70549;SDS011;58101;48.658;2.328;2023-03-24T02:45:48;6.85;;;1.98;;
70549;SDS011;58101;48.658;2.328;2023-03-24T02:53:59;8.73;;;1.80;;
70549;SDS011;58101;48.658;2.328;2023-03-24T02:59:21;6.68;;;1.55;;
70549;SDS011;58101;48.658;2.328;2023-03-24T03:02:07;8.85;;;1.90;;
70549;SDS011;58101;48.658;2.328;2023-03-24T03:04:43;5.72;;;1.80;;
70549;SDS011;58101;48.658;2.328;2023-03-24T03:07:20;8.32;;;1.65;;
70549;SDS011;58101;48.658;2.328;2023-03-24T03:10:23;5.18;;;1.52;;
70549;SDS011;58101;48.658;2.328;2023-03-24T03:12:41;7.03;;;1.60;;
70549;SDS011;58101;48.658;2.328;2023-03-24T03:15:11;5.22;;;1.48;;
70549;SDS011;58101;48.658;2.328;2023-03-24T03:17:41;8.13;;;1.85;;
70549;SDS011;58101;48.658;2.328;2023-03-24T03:20:18;7.25;;;1.70;;
70549;SDS011;58101;48.658;2.328;2023-03-24T03:23:22;6.78;;;1.50;;
70549;SDS011;58101;48.658;2.328;2023-03-24T03:25:49;5.85;;;1.55;;
70549;SDS011;58101;48.658;2.328;2023-03-24T03:28:22;6.75;;;2.00;;
70549;SDS011;58101;48.658;2.328;2023-03-24T03:30:54;6.22;;;1.58;;
70549;SDS011;58101;48.658;2.328;2023-03-24T03:33:29;5.97;;;1.52;;
70549;SDS011;58101;48.658;2.328;2023-03-24T03:36:06;7.57;;;1.55;;
70549;SDS011;58101;48.658;2.328;2023-03-24T03:41:11;8.27;;;1.40;;
70549;SDS011;58101;48.658;2.328;2023-03-24T03:43:39;7.68;;;1.75;;
70549;SDS011;58101;48.658;2.328;2023-03-24T03:46:05;6.90;;;1.50;;
70549;SDS011;58101;48.658;2.328;2023-03-24T03:48:31;4.93;;;1.20;;
70549;SDS011;58101;48.658;2.328;2023-03-24T03:50:58;6.43;;;1.30;;
70549;SDS011;58101;48.658;2.328;2023-03-24T03:53:25;8.95;;;1.30;;
70549;SDS011;58101;48.658;2.328;2023-03-24T03:56:01;7.60;;;1.20;;
70549;SDS011;58101;48.658;2.328;2023-03-24T03:58:28;9.45;;;1.40;;
70549;SDS011;58101;48.658;2.328;2023-03-24T04:00:54;5.78;;;1.30;;
70549;SDS011;58101;48.658;2.328;2023-03-24T04:09:18;5.22;;;1.10;;
70549;SDS011;58101;48.658;2.328;2023-03-24T04:22:27;5.47;;;1.10;;
70549;SDS011;58101;48.658;2.328;2023-03-24T04:25:17;6.90;;;1.10;;
70549;SDS011;58101;48.658;2.328;2023-03-24T04:28:14;7.25;;;1.23;;
70549;SDS011;58101;48.658;2.328;2023-03-24T04:30:58;8.20;;;1.40;;
70549;SDS011;58101;48.658;2.328;2023-03-24T04:33:42;7.95;;;1.20;;
70549;SDS011;58101;48.658;2.328;2023-03-24T04:38:51;7.60;;;1.20;;
70549;SDS011;58101;48.658;2.328;2023-03-24T04:41:19;7.53;;;1.20;;
70549;SDS011;58101;48.658;2.328;2023-03-24T04:43:46;8.18;;;1.10;;
70549;SDS011;58101;48.658;2.328;2023-03-24T04:46:12;7.57;;;1.02;;
70549;SDS011;58101;48.658;2.328;2023-03-24T04:48:42;6.72;;;1.23;;
70549;SDS011;58101;48.658;2.328;2023-03-24T04:51:12;9.20;;;1.30;;
70549;SDS011;58101;48.658;2.328;2023-03-24T04:53:39;8.90;;;1.15;;
70549;SDS011;58101;48.658;2.328;2023-03-24T04:56:21;9.82;;;1.30;;
70549;SDS011;58101;48.658;2.328;2023-03-24T04:59:03;7.35;;;1.20;;
70549;SDS011;58101;48.658;2.328;2023-03-24T05:01:31;10.45;;;1.20;;
70549;SDS011;58101;48.658;2.328;2023-03-24T05:04:02;8.77;;;1.10;;
70549;SDS011;58101;48.658;2.328;2023-03-24T05:06:28;11.25;;;1.77;;
70549;SDS011;58101;48.658;2.328;2023-03-24T05:08:54;7.60;;;1.27;;
70549;SDS011;58101;48.658;2.328;2023-03-24T05:11:23;14.70;;;1.73;;
70549;SDS011;58101;48.658;2.328;2023-03-24T05:13:52;8.93;;;1.45;;
70549;SDS011;58101;48.658;2.328;2023-03-24T05:16:18;8.75;;;1.50;;
70549;SDS011;58101;48.658;2.328;2023-03-24T05:18:45;10.00;;;1.50;;
70549;SDS011;58101;48.658;2.328;2023-03-24T05:21:11;12.85;;;1.45;;
70549;SDS011;58101;48.658;2.328;2023-03-24T05:23:37;9.30;;;1.40;;
70549;SDS011;58101;48.658;2.328;2023-03-24T05:26:03;12.65;;;1.45;;
70549;SDS011;58101;48.658;2.328;2023-03-24T05:28:29;11.30;;;1.30;;
70549;SDS011;58101;48.658;2.328;2023-03-24T05:30:55;9.45;;;1.23;;
70549;SDS011;58101;48.658;2.328;2023-03-24T05:33:21;10.95;;;1.38;;
70549;SDS011;58101;48.658;2.328;2023-03-24T05:35:46;14.48;;;1.50;;
70549;SDS011;58101;48.658;2.328;2023-03-24T05:38:12;13.32;;;1.60;;
70549;SDS011;58101;48.658;2.328;2023-03-24T05:40:38;10.23;;;1.30;;
70549;SDS011;58101;48.658;2.328;2023-03-24T05:43:03;13.57;;;1.50;;
70549;SDS011;58101;48.658;2.328;2023-03-24T05:45:29;8.57;;;1.60;;
70549;SDS011;58101;48.658;2.328;2023-03-24T05:47:55;9.88;;;1.20;;
70549;SDS011;58101;48.658;2.328;2023-03-24T05:50:21;10.02;;;1.58;;
70549;SDS011;58101;48.658;2.328;2023-03-24T05:52:48;7.53;;;1.27;;
70549;SDS011;58101;48.658;2.328;2023-03-24T05:55:14;12.00;;;1.25;;
70549;SDS011;58101;48.658;2.328;2023-03-24T05:57:40;10.50;;;1.60;;
70549;SDS011;58101;48.658;2.328;2023-03-24T06:02:34;11.88;;;1.25;;
70549;SDS011;58101;48.658;2.328;2023-03-24T06:05:00;12.10;;;1.70;;
70549;SDS011;58101;48.658;2.328;2023-03-24T06:07:26;12.75;;;1.65;;
70549;SDS011;58101;48.658;2.328;2023-03-24T06:09:54;9.30;;;1.30;;
70549;SDS011;58101;48.658;2.328;2023-03-24T06:12:26;9.20;;;1.42;;
70549;SDS011;58101;48.658;2.328;2023-03-24T06:14:54;10.18;;;1.40;;
70549;SDS011;58101;48.658;2.328;2023-03-24T06:17:20;13.77;;;1.70;;
70549;SDS011;58101;48.658;2.328;2023-03-24T06:19:46;10.68;;;1.50;;
70549;SDS011;58101;48.658;2.328;2023-03-24T06:22:17;9.35;;;1.50;;
70549;SDS011;58101;48.658;2.328;2023-03-24T06:24:44;11.88;;;1.50;;
70549;SDS011;58101;48.658;2.328;2023-03-24T06:27:14;12.73;;;1.67;;
70549;SDS011;58101;48.658;2.328;2023-03-24T06:29:42;12.15;;;1.55;;
70549;SDS011;58101;48.658;2.328;2023-03-24T06:32:09;14.23;;;1.50;;
70549;SDS011;58101;48.658;2.328;2023-03-24T06:34:35;10.50;;;1.50;;
70549;SDS011;58101;48.658;2.328;2023-03-24T06:37:02;10.57;;;1.42;;
70549;SDS011;58101;48.658;2.328;2023-03-24T06:39:28;10.43;;;1.42;;
70549;SDS011;58101;48.658;2.328;2023-03-24T06:41:54;12.77;;;1.50;;
70549;SDS011;58101;48.658;2.328;2023-03-24T06:44:20;14.10;;;1.63;;
70549;SDS011;58101;48.658;2.328;2023-03-24T06:46:45;13.77;;;1.75;;
70549;SDS011;58101;48.658;2.328;2023-03-24T06:49:11;9.60;;;1.48;;
70549;SDS011;58101;48.658;2.328;2023-03-24T06:51:36;11.82;;;1.65;;
70549;SDS011;58101;48.658;2.328;2023-03-24T06:54:02;13.05;;;1.67;;
70549;SDS011;58101;48.658;2.328;2023-03-24T06:56:28;8.80;;;1.52;;
70549;SDS011;58101;48.658;2.328;2023-03-24T06:58:54;10.23;;;1.50;;
70549;SDS011;58101;48.658;2.328;2023-03-24T07:01:21;13.65;;;1.95;;
70549;SDS011;58101;48.658;2.328;2023-03-24T07:03:48;15.68;;;1.67;;
70549;SDS011;58101;48.658;2.328;2023-03-24T07:06:14;8.82;;;1.50;;
70549;SDS011;58101;48.658;2.328;2023-03-24T07:08:39;9.75;;;1.60;;
70549;SDS011;58101;48.658;2.328;2023-03-24T07:11:05;11.65;;;1.60;;
70549;SDS011;58101;48.658;2.328;2023-03-24T07:13:33;12.95;;;1.48;;
70549;SDS011;58101;48.658;2.328;2023-03-24T07:15:59;13.23;;;1.50;;
70549;SDS011;58101;48.658;2.328;2023-03-24T07:18:25;10.30;;;1.45;;
70549;SDS011;58101;48.658;2.328;2023-03-24T07:20:51;11.68;;;1.50;;
70549;SDS011;58101;48.658;2.328;2023-03-24T07:23:16;11.95;;;1.50;;
70549;SDS011;58101;48.658;2.328;2023-03-24T07:25:42;9.23;;;1.77;;
70549;SDS011;58101;48.658;2.328;2023-03-24T07:28:08;11.98;;;1.42;;
70549;SDS011;58101;48.658;2.328;2023-03-24T07:30:35;9.95;;;1.45;;
70549;SDS011;58101;48.658;2.328;2023-03-24T07:33:01;13.02;;;1.55;;
70549;SDS011;58101;48.658;2.328;2023-03-24T07:35:28;11.45;;;1.77;;
70549;SDS011;58101;48.658;2.328;2023-03-24T07:37:58;11.10;;;1.70;;
70549;SDS011;58101;48.658;2.328;2023-03-24T07:40:24;12.05;;;1.70;;
70549;SDS011;58101;48.658;2.328;2023-03-24T07:42:50;11.35;;;1.55;;
70549;SDS011;58101;48.658;2.328;2023-03-24T07:45:18;15.60;;;2.03;;
70549;SDS011;58101;48.658;2.328;2023-03-24T07:47:44;11.23;;;1.30;;
70549;SDS011;58101;48.658;2.328;2023-03-24T07:50:11;12.77;;;1.35;;
70549;SDS011;58101;48.658;2.328;2023-03-24T07:52:38;11.05;;;1.40;;
70549;SDS011;58101;48.658;2.328;2023-03-24T07:55:06;9.13;;;1.40;;
70549;SDS011;58101;48.658;2.328;2023-03-24T07:57:35;13.20;;;1.58;;
70549;SDS011;58101;48.658;2.328;2023-03-24T08:00:05;15.77;;;2.00;;
70549;SDS011;58101;48.658;2.328;2023-03-24T08:02:40;12.35;;;1.55;;
70549;SDS011;58101;48.658;2.328;2023-03-24T08:05:06;13.77;;;1.77;;
70549;SDS011;58101;48.658;2.328;2023-03-24T08:07:34;11.10;;;1.73;;
70549;SDS011;58101;48.658;2.328;2023-03-24T08:10:00;17.05;;;1.67;;
70549;SDS011;58101;48.658;2.328;2023-03-24T08:12:25;11.02;;;1.60;;
70549;SDS011;58101;48.658;2.328;2023-03-24T08:14:51;16.60;;;2.40;;
70549;SDS011;58101;48.658;2.328;2023-03-24T08:17:17;12.27;;;1.52;;
70549;SDS011;58101;48.658;2.328;2023-03-24T08:19:42;10.57;;;1.55;;
70549;SDS011;58101;48.658;2.328;2023-03-24T08:22:08;13.30;;;1.92;;
70549;SDS011;58101;48.658;2.328;2023-03-24T08:24:34;13.52;;;1.88;;
70549;SDS011;58101;48.658;2.328;2023-03-24T08:27:00;8.90;;;1.65;;
70549;SDS011;58101;48.658;2.328;2023-03-24T08:29:30;12.27;;;1.67;;
70549;SDS011;58101;48.658;2.328;2023-03-24T08:31:58;15.75;;;1.70;;
70549;SDS011;58101;48.658;2.328;2023-03-24T08:34:25;13.85;;;1.63;;
70549;SDS011;58101;48.658;2.328;2023-03-24T08:36:51;13.77;;;1.85;;
70549;SDS011;58101;48.658;2.328;2023-03-24T08:39:17;9.30;;;1.73;;
70549;SDS011;58101;48.658;2.328;2023-03-24T08:41:44;14.27;;;1.92;;
70549;SDS011;58101;48.658;2.328;2023-03-24T08:44:10;18.13;;;1.80;;
70549;SDS011;58101;48.658;2.328;2023-03-24T08:46:36;11.75;;;1.60;;
70549;SDS011;58101;48.658;2.328;2023-03-24T08:49:02;13.75;;;1.70;;
70549;SDS011;58101;48.658;2.328;2023-03-24T08:51:28;10.45;;;1.40;;
70549;SDS011;58101;48.658;2.328;2023-03-24T08:54:00;13.13;;;1.50;;
70549;SDS011;58101;48.658;2.328;2023-03-24T08:56:27;10.73;;;1.70;;
70549;SDS011;58101;48.658;2.328;2023-03-24T08:58:53;12.48;;;1.95;;
70549;SDS011;58101;48.658;2.328;2023-03-24T09:01:20;10.90;;;1.60;;
70549;SDS011;58101;48.658;2.328;2023-03-24T09:07:07;10.82;;;1.77;;
70549;SDS011;58101;48.658;2.328;2023-03-24T09:09:33;12.98;;;1.77;;
70549;SDS011;58101;48.658;2.328;2023-03-24T09:11:59;11.60;;;1.58;;
70549;SDS011;58101;48.658;2.328;2023-03-24T09:14:25;12.50;;;1.70;;
70549;SDS011;58101;48.658;2.328;2023-03-24T09:16:54;9.63;;;1.77;;
70549;SDS011;58101;48.658;2.328;2023-03-24T09:19:20;13.63;;;1.83;;
70549;SDS011;58101;48.658;2.328;2023-03-24T09:24:40;10.10;;;1.75;;
70549;SDS011;58101;48.658;2.328;2023-03-24T09:29:32;10.32;;;1.70;;
70549;SDS011;58101;48.658;2.328;2023-03-24T09:31:57;11.43;;;2.05;;
70549;SDS011;58101;48.658;2.328;2023-03-24T09:34:23;9.52;;;1.75;;
70549;SDS011;58101;48.658;2.328;2023-03-24T09:36:49;10.18;;;1.60;;
70549;SDS011;58101;48.658;2.328;2023-03-24T09:39:15;9.07;;;1.40;;
70549;SDS011;58101;48.658;2.328;2023-03-24T09:41:44;11.65;;;1.85;;
70549;SDS011;58101;48.658;2.328;2023-03-24T09:49:42;11.13;;;2.05;;
70549;SDS011;58101;48.658;2.328;2023-03-24T09:52:12;10.05;;;1.83;;
70549;SDS011;58101;48.658;2.328;2023-03-24T10:00:04;9.70;;;1.80;;
70549;SDS011;58101;48.658;2.328;2023-03-24T10:02:47;11.00;;;1.85;;
70549;SDS011;58101;48.658;2.328;2023-03-24T10:05:17;10.80;;;1.65;;
70549;SDS011;58101;48.658;2.328;2023-03-24T10:07:59;11.07;;;1.50;;
70549;SDS011;58101;48.658;2.328;2023-03-24T10:10:37;10.32;;;1.60;;
70549;SDS011;58101;48.658;2.328;2023-03-24T10:13:31;10.45;;;1.58;;
70549;SDS011;58101;48.658;2.328;2023-03-24T10:21:59;11.27;;;1.30;;
70549;SDS011;58101;48.658;2.328;2023-03-24T10:27:46;11.43;;;1.60;;
70549;SDS011;58101;48.658;2.328;2023-03-24T10:30:33;8.82;;;1.50;;
70549;SDS011;58101;48.658;2.328;2023-03-24T10:33:02;12.20;;;1.45;;
70549;SDS011;58101;48.658;2.328;2023-03-24T10:35:29;12.27;;;1.58;;
70549;SDS011;58101;48.658;2.328;2023-03-24T10:38:01;9.68;;;1.30;;
70549;SDS011;58101;48.658;2.328;2023-03-24T10:40:33;10.23;;;1.50;;
70549;SDS011;58101;48.658;2.328;2023-03-24T10:45:57;8.13;;;1.80;;
70549;SDS011;58101;48.658;2.328;2023-03-24T10:48:33;9.68;;;1.63;;
70549;SDS011;58101;48.658;2.328;2023-03-24T10:51:05;8.98;;;1.40;;
70549;SDS011;58101;48.658;2.328;2023-03-24T10:53:31;11.10;;;1.50;;
70549;SDS011;58101;48.658;2.328;2023-03-24T10:56:07;9.73;;;1.20;;
70549;SDS011;58101;48.658;2.328;2023-03-24T10:58:39;10.18;;;1.55;;
70549;SDS011;58101;48.658;2.328;2023-03-24T11:01:20;9.43;;;1.67;;
70549;SDS011;58101;48.658;2.328;2023-03-24T11:03:47;12.52;;;1.60;;
70549;SDS011;58101;48.658;2.328;2023-03-24T11:06:15;12.77;;;1.80;;
70549;SDS011;58101;48.658;2.328;2023-03-24T11:08:45;12.48;;;2.00;;
70549;SDS011;58101;48.658;2.328;2023-03-24T11:11:12;13.68;;;1.92;;
70549;SDS011;58101;48.658;2.328;2023-03-24T11:13:59;8.90;;;1.70;;
70549;SDS011;58101;48.658;2.328;2023-03-24T11:16:36;9.43;;;1.80;;
70549;SDS011;58101;48.658;2.328;2023-03-24T11:19:16;9.13;;;1.70;;
70549;SDS011;58101;48.658;2.328;2023-03-24T11:21:48;9.93;;;1.50;;
70549;SDS011;58101;48.658;2.328;2023-03-24T11:24:16;9.77;;;1.60;;
70549;SDS011;58101;48.658;2.328;2023-03-24T11:26:48;9.23;;;1.50;;
70549;SDS011;58101;48.658;2.328;2023-03-24T11:29:21;13.65;;;1.75;;
70549;SDS011;58101;48.658;2.328;2023-03-24T11:31:59;9.57;;;1.50;;
70549;SDS011;58101;48.658;2.328;2023-03-24T11:34:31;6.38;;;1.27;;
70549;SDS011;58101;48.658;2.328;2023-03-24T11:37:15;11.25;;;1.70;;
70549;SDS011;58101;48.658;2.328;2023-03-24T11:39:43;6.95;;;1.30;;
70549;SDS011;58101;48.658;2.328;2023-03-24T11:42:58;10.43;;;1.50;;
70549;SDS011;58101;48.658;2.328;2023-03-24T11:51:26;10.25;;;1.40;;
70549;SDS011;58101;48.658;2.328;2023-03-24T11:53:56;9.90;;;1.50;;
70549;SDS011;58101;48.658;2.328;2023-03-24T12:02:50;9.18;;;1.70;;
70549;SDS011;58101;48.658;2.328;2023-03-24T12:06:15;9.85;;;1.70;;
70549;SDS011;58101;48.658;2.328;2023-03-24T12:08:58;13.40;;;2.20;;
70549;SDS011;58101;48.658;2.328;2023-03-24T12:14:45;15.13;;;1.90;;
70549;SDS011;58101;48.658;2.328;2023-03-24T12:17:15;8.98;;;1.40;;
70549;SDS011;58101;48.658;2.328;2023-03-24T12:20:32;10.35;;;1.70;;
70549;SDS011;58101;48.658;2.328;2023-03-24T12:25:38;12.38;;;1.65;;
70549;SDS011;58101;48.658;2.328;2023-03-24T12:33:42;12.68;;;1.80;;
70549;SDS011;58101;48.658;2.328;2023-03-24T12:36:25;10.52;;;1.67;;
70549;SDS011;58101;48.658;2.328;2023-03-24T12:39:08;11.80;;;1.40;;
70549;SDS011;58101;48.658;2.328;2023-03-24T12:55:27;6.70;;;1.10;;
70549;SDS011;58101;48.658;2.328;2023-03-24T13:03:22;9.80;;;1.52;;
70549;SDS011;58101;48.658;2.328;2023-03-24T13:05:54;7.00;;;1.30;;
70549;SDS011;58101;48.658;2.328;2023-03-24T13:08:23;9.40;;;1.42;;
70549;SDS011;58101;48.658;2.328;2023-03-24T13:10:57;10.90;;;1.63;;
70549;SDS011;58101;48.658;2.328;2023-03-24T13:13:30;10.32;;;1.65;;
70549;SDS011;58101;48.658;2.328;2023-03-24T13:16:02;8.30;;;1.30;;
70549;SDS011;58101;48.658;2.328;2023-03-24T13:18:46;9.10;;;1.40;;
70549;SDS011;58101;48.658;2.328;2023-03-24T13:21:17;7.18;;;1.10;;
70549;SDS011;58101;48.658;2.328;2023-03-24T13:23:52;8.80;;;1.20;;
70549;SDS011;58101;48.658;2.328;2023-03-24T13:31:25;9.05;;;1.45;;
70549;SDS011;58101;48.658;2.328;2023-03-24T13:33:56;9.57;;;1.52;;
70549;SDS011;58101;48.658;2.328;2023-03-24T13:39:06;8.32;;;1.50;;
70549;SDS011;58101;48.658;2.328;2023-03-24T13:41:38;7.38;;;1.63;;
70549;SDS011;58101;48.658;2.328;2023-03-24T13:46:41;10.70;;;1.73;;
70549;SDS011;58101;48.658;2.328;2023-03-24T13:49:11;14.57;;;1.58;;
70549;SDS011;58101;48.658;2.328;2023-03-24T13:51:44;9.88;;;1.50;;
70549;SDS011;58101;48.658;2.328;2023-03-24T13:56:38;8.35;;;1.23;;
70549;SDS011;58101;48.658;2.328;2023-03-24T13:59:23;7.55;;;1.30;;
70549;SDS011;58101;48.658;2.328;2023-03-24T14:04:48;8.48;;;1.40;;
70549;SDS011;58101;48.658;2.328;2023-03-24T14:21:01;8.27;;;1.20;;
70549;SDS011;58101;48.658;2.328;2023-03-24T14:27:19;7.75;;;1.15;;
70549;SDS011;58101;48.658;2.328;2023-03-24T14:33:02;5.28;;;0.80;;
70549;SDS011;58101;48.658;2.328;2023-03-24T14:40:40;8.18;;;1.00;;
70549;SDS011;58101;48.658;2.328;2023-03-24T14:51:29;7.47;;;1.10;;
70549;SDS011;58101;48.658;2.328;2023-03-24T14:54:01;8.10;;;1.40;;
70549;SDS011;58101;48.658;2.328;2023-03-24T14:56:32;7.75;;;1.20;;
70549;SDS011;58101;48.658;2.328;2023-03-24T14:59:07;10.45;;;1.83;;
70549;SDS011;58101;48.658;2.328;2023-03-24T15:01:49;7.65;;;1.00;;
70549;SDS011;58101;48.658;2.328;2023-03-24T15:04:18;6.88;;;1.13;;
70549;SDS011;58101;48.658;2.328;2023-03-24T15:06:47;8.82;;;1.10;;
70549;SDS011;58101;48.658;2.328;2023-03-24T15:09:16;7.40;;;1.20;;
70549;SDS011;58101;48.658;2.328;2023-03-24T15:11:43;8.63;;;1.35;;
70549;SDS011;58101;48.658;2.328;2023-03-24T15:16:56;7.93;;;1.10;;
70549;SDS011;58101;48.658;2.328;2023-03-24T15:27:24;8.15;;;1.23;;
70549;SDS011;58101;48.658;2.328;2023-03-24T15:29:54;6.82;;;1.00;;
70549;SDS011;58101;48.658;2.328;2023-03-24T15:32:23;6.65;;;1.10;;
70549;SDS011;58101;48.658;2.328;2023-03-24T15:35:03;6.32;;;1.20;;
70549;SDS011;58101;48.658;2.328;2023-03-24T15:37:39;5.13;;;0.82;;
70549;SDS011;58101;48.658;2.328;2023-03-24T15:43:03;8.88;;;1.00;;
70549;SDS011;58101;48.658;2.328;2023-03-24T15:45:42;8.25;;;1.30;;
70549;SDS011;58101;48.658;2.328;2023-03-24T15:48:12;5.93;;;1.20;;
70549;SDS011;58101;48.658;2.328;2023-03-24T15:50:41;6.53;;;0.93;;
70549;SDS011;58101;48.658;2.328;2023-03-24T15:53:25;9.10;;;1.10;;
70549;SDS011;58101;48.658;2.328;2023-03-24T15:56:05;7.05;;;1.10;;
70549;SDS011;58101;48.658;2.328;2023-03-24T15:58:47;10.02;;;1.20;;
70549;SDS011;58101;48.658;2.328;2023-03-24T16:01:25;7.97;;;1.20;;
70549;SDS011;58101;48.658;2.328;2023-03-24T16:03:55;7.57;;;1.23;;
70549;SDS011;58101;48.658;2.328;2023-03-24T16:06:28;6.25;;;1.15;;
70549;SDS011;58101;48.658;2.328;2023-03-24T16:08:59;9.63;;;1.65;;
70549;SDS011;58101;48.658;2.328;2023-03-24T16:11:29;5.85;;;0.80;;
70549;SDS011;58101;48.658;2.328;2023-03-24T16:13:55;8.13;;;1.00;;
70549;SDS011;58101;48.658;2.328;2023-03-24T16:18:50;5.78;;;0.90;;
70549;SDS011;58101;48.658;2.328;2023-03-24T16:21:25;7.93;;;1.05;;
70549;SDS011;58101;48.658;2.328;2023-03-24T16:23:55;4.93;;;0.68;;
70549;SDS011;58101;48.658;2.328;2023-03-24T16:26:23;5.88;;;1.15;;
70549;SDS011;58101;48.658;2.328;2023-03-24T16:28:50;7.47;;;1.00;;
70549;SDS011;58101;48.658;2.328;2023-03-24T16:31:21;7.07;;;0.93;;
70549;SDS011;58101;48.658;2.328;2023-03-24T16:33:49;6.15;;;1.00;;
70549;SDS011;58101;48.658;2.328;2023-03-24T16:36:16;7.45;;;1.20;;
70549;SDS011;58101;48.658;2.328;2023-03-24T16:38:43;6.10;;;1.00;;
70549;SDS011;58101;48.658;2.328;2023-03-24T16:41:09;7.05;;;1.05;;
70549;SDS011;58101;48.658;2.328;2023-03-24T16:43:37;8.32;;;1.13;;
70549;SDS011;58101;48.658;2.328;2023-03-24T16:46:04;7.65;;;1.40;;
70549;SDS011;58101;48.658;2.328;2023-03-24T16:48:30;8.65;;;1.20;;
70549;SDS011;58101;48.658;2.328;2023-03-24T16:50:55;8.02;;;1.25;;
70549;SDS011;58101;48.658;2.328;2023-03-24T16:53:22;8.88;;;1.08;;
70549;SDS011;58101;48.658;2.328;2023-03-24T16:55:48;13.05;;;1.30;;
70549;SDS011;58101;48.658;2.328;2023-03-24T16:58:14;10.55;;;1.30;;
70549;SDS011;58101;48.658;2.328;2023-03-24T17:00:41;8.05;;;1.23;;
70549;SDS011;58101;48.658;2.328;2023-03-24T17:05:42;8.77;;;1.35;;
70549;SDS011;58101;48.658;2.328;2023-03-24T17:08:10;9.93;;;1.58;;
70549;SDS011;58101;48.658;2.328;2023-03-24T17:10:38;9.75;;;1.23;;
70549;SDS011;58101;48.658;2.328;2023-03-24T17:13:06;13.07;;;1.55;;
70549;SDS011;58101;48.658;2.328;2023-03-24T17:15:32;7.90;;;1.42;;
70549;SDS011;58101;48.658;2.328;2023-03-24T17:17:57;8.98;;;1.77;;
70549;SDS011;58101;48.658;2.328;2023-03-24T17:20:24;10.43;;;1.55;;
70549;SDS011;58101;48.658;2.328;2023-03-24T17:22:52;11.80;;;1.67;;
70549;SDS011;58101;48.658;2.328;2023-03-24T17:25:20;8.38;;;1.05;;
70549;SDS011;58101;48.658;2.328;2023-03-24T17:27:47;7.53;;;1.15;;
70549;SDS011;58101;48.658;2.328;2023-03-24T17:30:15;10.88;;;1.50;;
70549;SDS011;58101;48.658;2.328;2023-03-24T17:32:45;9.23;;;1.00;;
70549;SDS011;58101;48.658;2.328;2023-03-24T17:35:11;9.07;;;1.15;;
70549;SDS011;58101;48.658;2.328;2023-03-24T17:37:39;9.18;;;1.23;;
70549;SDS011;58101;48.658;2.328;2023-03-24T17:40:05;7.10;;;1.02;;
70549;SDS011;58101;48.658;2.328;2023-03-24T17:42:34;6.18;;;1.27;;
70549;SDS011;58101;48.658;2.328;2023-03-24T17:45:01;9.77;;;1.00;;
70549;SDS011;58101;48.658;2.328;2023-03-24T17:47:28;5.00;;;0.88;;
70549;SDS011;58101;48.658;2.328;2023-03-24T17:49:54;5.97;;;0.85;;
70549;SDS011;58101;48.658;2.328;2023-03-24T17:52:20;6.55;;;1.00;;
70549;SDS011;58101;48.658;2.328;2023-03-24T17:54:46;4.50;;;0.80;;
70549;SDS011;58101;48.658;2.328;2023-03-24T17:57:12;6.60;;;0.82;;
70549;SDS011;58101;48.658;2.328;2023-03-24T17:59:37;8.27;;;1.20;;
70549;SDS011;58101;48.658;2.328;2023-03-24T18:02:03;7.05;;;0.95;;
70549;SDS011;58101;48.658;2.328;2023-03-24T18:04:30;4.50;;;0.93;;
70549;SDS011;58101;48.658;2.328;2023-03-24T18:06:56;10.15;;;1.20;;
70549;SDS011;58101;48.658;2.328;2023-03-24T18:09:23;8.68;;;1.23;;
70549;SDS011;58101;48.658;2.328;2023-03-24T18:11:50;5.55;;;0.98;;
70549;SDS011;58101;48.658;2.328;2023-03-24T18:14:17;9.07;;;1.13;;
70549;SDS011;58101;48.658;2.328;2023-03-24T18:16:42;5.07;;;1.00;;
70549;SDS011;58101;48.658;2.328;2023-03-24T18:19:08;6.30;;;1.13;;
70549;SDS011;58101;48.658;2.328;2023-03-24T18:21:34;5.82;;;1.08;;
70549;SDS011;58101;48.658;2.328;2023-03-24T18:24:00;7.43;;;1.15;;
70549;SDS011;58101;48.658;2.328;2023-03-24T18:26:26;6.78;;;1.05;;